Time,TemperatureF,DewpointF,PressureIn,WindDirection,WindDirectionDegrees,WindSpeedMPH,WindSpeedGustMPH,Humidity,HourlyPrecipIn,Conditions,Clouds,dailyrainin,SoftwareType,DateUTC
2013-09-28 00:02:00,55.5,46.2,29.95,WSW,253,2.3,2.3,71,0.00,CLR,,0.00,WeatherDisplay:10.37,2013-09-27 14:02:00,
2013-09-28 00:07:00,55.4,46.2,29.95,WSW,253,0.0,0.0,71,0.00,CLR,,0.00,WeatherDisplay:10.37,2013-09-27 14:07:00,
2013-09-28 00:12:00,55.4,46.5,29.94,WSW,252,0.0,0.0,72,0.00,CLR,,0.00,WeatherDisplay:10.37,2013-09-27 14:12:00,
2013-09-28 00:17:00,55.3,46.4,29.94,WSW,253,0.0,0.0,72,0.00,CLR,,0.00,WeatherDisplay:10.37,2013-09-27 14:17:00,
2013-09-28 00:22:00,55.3,46.4,29.94,WSW,252,0.0,0.0,72,0.00,CLR,,0.00,WeatherDisplay:10.37,2013-09-27 14:22:00,
2013-09-28 00:27:00,55.1,46.6,29.94,WSW,253,0.0,0.0,73,0.00,CLR,,0.00,WeatherDisplay:10.37,2013-09-27 14:27:00,
2013-09-28 00:32:00,55.0,46.5,29.94,WSW,252,0.0,0.0,73,0.00,CLR,,0.00,WeatherDisplay:10.37,2013-09-27 14:32:00,
2013-09-28 00:37:00,55.0,46.5,29.94,WSW,253,0.0,0.0,73,0.00,CLR,,0.00,WeatherDisplay:10.37,2013-09-27 14:37:00,
2013-09-28 00:42:00,55.1,46.6,29.93,WSW,253,1.1,1.1,73,0.00,CLR,,0.00,WeatherDisplay:10.37,2013-09-27 14:42:00,
2013-09-28 00:47:00,55.1,46.6,29.93,WSW,253,1.1,0.0,73,0.00,CLR,,0.00,WeatherDisplay:10.37,2013-09-27 14:47:00,
2013-09-28 00:52:00,55.1,47.0,29.93,WSW,252,0.0,0.0,74,0.00,CLR,,0.00,WeatherDisplay:10.37,2013-09-27 14:52:00,
2013-09-28 00:57:00,54.7,46.6,29.93,WSW,253,0.0,0.0,74,0.00,CLR,,0.00,WeatherDisplay:10.37,2013-09-27 14:57:00,
2013-09-28 01:02:00,54.4,47.0,29.92,WSW,252,0.0,0.0,76,0.00,CLR,,0.00,WeatherDisplay:10.37,2013-09-27 15:02:00,
2013-09-28 01:07:00,54.2,46.8,29.93,WSW,253,1.1,0.0,76,0.00,CLR,,0.00,WeatherDisplay:10.37,2013-09-27 15:07:00,
2013-09-28 01:12:00,53.9,46.5,29.93,WSW,253,0.0,0.0,76,0.00,CLR,,0.00,WeatherDisplay:10.37,2013-09-27 15:12:00,
2013-09-28 01:17:00,53.8,46.8,29.92,WSW,253,2.3,2.3,77,0.00,CLR,,0.00,WeatherDisplay:10.37,2013-09-27 15:17:00,
2013-09-28 01:22:00,53.9,47.2,29.91,WSW,252,2.3,2.3,78,0.00,CLR,,0.00,WeatherDisplay:10.37,2013-09-27 15:22:00,
2013-09-28 01:27:00,54.3,47.2,29.92,WSW,253,1.0,0.0,77,0.00,CLR,,0.00,WeatherDisplay:10.37,2013-09-27 15:27:00,
2013-09-28 01:32:00,53.3,46.3,29.93,WSW,253,0.0,0.1,77,0.00,CLR,,0.00,WeatherDisplay:10.37,2013-09-27 15:32:00,
2013-09-28 01:37:00,52.5,46.2,29.93,WSW,253,1.1,0.0,79,0.00,CLR,,0.00,WeatherDisplay:10.37,2013-09-27 15:37:00,
2013-09-28 01:42:00,52.3,46.3,29.92,WSW,252,1.1,0.0,80,0.00,CLR,,0.00,WeatherDisplay:10.37,2013-09-27 15:42:00,
2013-09-28 01:47:00,52.2,46.5,29.92,WSW,252,0.0,0.0,81,0.00,CLR,,0.00,WeatherDisplay:10.37,2013-09-27 15:47:00,
2013-09-28 01:52:00,52.2,46.5,29.91,WSW,252,0.0,0.0,81,0.00,CLR,,0.00,WeatherDisplay:10.37,2013-09-27 15:52:00,
2013-09-28 01:57:00,52.4,46.7,29.91,WSW,253,0.0,0.0,81,0.00,CLR,,0.00,WeatherDisplay:10.37,2013-09-27 15:57:00,
2013-09-28 02:02:00,52.5,46.5,29.90,WSW,252,0.0,0.0,80,0.00,CLR,,0.00,WeatherDisplay:10.37,2013-09-27 16:02:00,
2013-09-28 02:07:00,52.4,46.7,29.90,WSW,253,0.0,0.0,81,0.00,CLR,,0.00,WeatherDisplay:10.37,2013-09-27 16:07:00,
2013-09-28 02:12:00,52.3,46.6,29.90,WSW,253,0.0,0.0,81,0.00,CLR,,0.00,WeatherDisplay:10.37,2013-09-27 16:12:00,
2013-09-28 02:18:00,52.0,46.3,29.90,WSW,253,0.0,0.0,81,0.00,CLR,,0.00,WeatherDisplay:10.37,2013-09-27 16:18:00,
2013-09-28 02:23:00,51.6,46.3,29.90,WSW,253,0.0,0.0,82,0.00,CLR,,0.00,WeatherDisplay:10.37,2013-09-27 16:23:00,
2013-09-28 02:28:00,51.5,46.2,29.90,WSW,253,0.0,0.0,82,0.00,CLR,,0.00,WeatherDisplay:10.37,2013-09-27 16:28:00,
2013-09-28 02:33:00,51.5,46.2,29.90,WSW,253,0.0,0.0,82,0.00,CLR,,0.00,WeatherDisplay:10.37,2013-09-27 16:33:00,
2013-09-28 02:38:00,51.5,46.5,29.89,WSW,252,0.0,0.0,83,0.00,CLR,,0.00,WeatherDisplay:10.37,2013-09-27 16:38:00,
2013-09-28 02:43:00,51.3,46.3,29.90,WSW,253,0.0,0.0,83,0.00,CLR,,0.00,WeatherDisplay:10.37,2013-09-27 16:43:00,
2013-09-28 02:48:00,50.9,45.9,29.89,WSW,253,0.0,0.0,83,0.00,CLR,,0.00,WeatherDisplay:10.37,2013-09-27 16:48:00,
2013-09-28 02:53:00,50.8,45.8,29.89,WSW,253,0.0,0.0,83,0.00,CLR,,0.00,WeatherDisplay:10.37,2013-09-27 16:53:00,
2013-09-28 02:58:00,50.8,46.1,29.89,WSW,253,0.0,0.0,84,0.00,CLR,,0.00,WeatherDisplay:10.37,2013-09-27 16:58:00,
2013-09-28 03:03:00,50.8,46.1,29.89,WSW,252,0.0,0.0,84,0.00,CLR,,0.00,WeatherDisplay:10.37,2013-09-27 17:03:00,
2013-09-28 03:08:00,50.8,46.1,29.89,WSW,253,0.0,0.0,84,0.00,CLR,,0.00,WeatherDisplay:10.37,2013-09-27 17:08:00,
2013-09-28 03:13:00,50.7,46.0,29.89,WSW,252,0.0,0.0,84,0.00,CLR,,0.00,WeatherDisplay:10.37,2013-09-27 17:13:00,
2013-09-28 03:18:00,50.6,45.9,29.88,WSW,252,0.0,0.0,84,0.00,CLR,,0.00,WeatherDisplay:10.37,2013-09-27 17:18:00,
2013-09-28 03:23:00,50.4,45.7,29.88,WSW,253,0.0,0.0,84,0.00,CLR,,0.00,WeatherDisplay:10.37,2013-09-27 17:23:00,
2013-09-28 03:26:00,50.4,45.7,29.88,WSW,253,0.0,0.0,84,0.00,CLR,,0.00,WeatherDisplay:10.37,2013-09-27 17:26:00,
2013-09-28 03:31:00,50.3,45.6,29.88,WSW,253,1.1,1.1,84,0.00,CLR,,0.00,WeatherDisplay:10.37,2013-09-27 17:31:00,
2013-09-28 03:36:00,50.3,45.6,29.87,WSW,253,0.0,0.0,84,0.00,CLR,,0.00,WeatherDisplay:10.37,2013-09-27 17:36:00,
2013-09-28 03:41:00,50.2,45.6,29.87,WSW,252,1.1,0.0,84,0.00,CLR,,0.00,WeatherDisplay:10.37,2013-09-27 17:41:00,
2013-09-28 03:46:00,50.2,45.6,29.87,WSW,252,1.1,1.1,84,0.00,CLR,,0.00,WeatherDisplay:10.37,2013-09-27 17:46:00,
2013-09-28 03:51:00,50.2,45.6,29.87,WSW,252,2.3,2.3,84,0.00,CLR,,0.00,WeatherDisplay:10.37,2013-09-27 17:51:00,
2013-09-28 03:56:00,50.1,45.5,29.87,WSW,252,1.1,1.1,84,0.00,CLR,,0.00,WeatherDisplay:10.37,2013-09-27 17:56:00,
2013-09-28 04:01:00,50.0,45.4,29.87,WSW,253,0.0,0.0,84,0.00,CLR,,0.00,WeatherDisplay:10.37,2013-09-27 18:01:00,
2013-09-28 04:06:00,49.9,45.6,29.87,WSW,253,0.0,0.0,85,0.00,CLR,,0.00,WeatherDisplay:10.37,2013-09-27 18:06:00,
2013-09-28 04:11:00,49.9,45.6,29.87,WSW,253,0.0,0.0,85,0.00,CLR,,0.00,WeatherDisplay:10.37,2013-09-27 18:11:00,
2013-09-28 04:16:00,49.8,45.5,29.86,WSW,253,0.0,0.0,85,0.00,CLR,,0.00,WeatherDisplay:10.37,2013-09-27 18:16:00,
2013-09-28 04:21:00,49.9,45.6,29.86,WSW,253,0.0,0.0,85,0.00,CLR,,0.00,WeatherDisplay:10.37,2013-09-27 18:21:00,
2013-09-28 04:26:00,49.7,45.4,29.86,WSW,253,0.0,0.0,85,0.00,CLR,,0.00,WeatherDisplay:10.37,2013-09-27 18:26:00,
2013-09-28 04:31:00,49.7,45.4,29.86,WSW,253,0.0,0.0,85,0.00,CLR,,0.00,WeatherDisplay:10.37,2013-09-27 18:31:00,
2013-09-28 04:36:00,49.6,45.3,29.86,WSW,252,0.0,0.0,85,0.00,CLR,,0.00,WeatherDisplay:10.37,2013-09-27 18:36:00,
2013-09-28 04:41:00,49.5,45.2,29.85,WSW,253,0.0,0.0,85,0.00,CLR,,0.00,WeatherDisplay:10.37,2013-09-27 18:41:00,
2013-09-28 04:46:00,49.4,45.1,29.85,WSW,252,0.0,0.0,85,0.00,CLR,,0.00,WeatherDisplay:10.37,2013-09-27 18:46:00,
2013-09-28 04:51:00,49.3,45.0,29.86,WSW,252,0.0,0.0,85,0.00,CLR,,0.00,WeatherDisplay:10.37,2013-09-27 18:51:00,
2013-09-28 04:56:00,49.1,44.8,29.86,WSW,253,0.0,0.0,85,0.00,CLR,,0.00,WeatherDisplay:10.37,2013-09-27 18:56:00,
2013-09-28 05:01:00,49.0,44.7,29.86,WSW,253,0.0,0.0,85,0.00,CLR,,0.00,WeatherDisplay:10.37,2013-09-27 19:01:00,
2013-09-28 05:07:00,48.8,44.8,29.85,WSW,253,0.0,0.0,86,0.00,CLR,,0.00,WeatherDisplay:10.37,2013-09-27 19:07:00,
2013-09-28 05:11:00,48.7,44.7,29.85,WSW,252,0.0,0.0,86,0.00,CLR,,0.00,WeatherDisplay:10.37,2013-09-27 19:11:00,
2013-09-28 05:17:00,48.6,44.6,29.85,WSW,253,0.0,0.0,86,0.00,CLR,,0.00,WeatherDisplay:10.37,2013-09-27 19:17:00,
2013-09-28 05:22:00,48.5,44.8,29.85,WSW,253,0.0,0.0,87,0.00,CLR,,0.00,WeatherDisplay:10.37,2013-09-27 19:22:00,
2013-09-28 05:27:00,48.4,44.7,29.86,WSW,253,1.0,0.0,87,0.00,CLR,,0.00,WeatherDisplay:10.37,2013-09-27 19:27:00,
2013-09-28 05:32:00,48.4,44.7,29.86,WSW,253,1.1,1.1,87,0.00,CLR,,0.00,WeatherDisplay:10.37,2013-09-27 19:32:00,
2013-09-28 05:37:00,48.4,44.7,29.86,WSW,254,0.0,0.0,87,0.00,CLR,,0.00,WeatherDisplay:10.37,2013-09-27 19:37:00,
2013-09-28 05:42:00,48.6,44.9,29.87,WSW,253,2.3,2.3,87,0.00,CLR,,0.00,WeatherDisplay:10.37,2013-09-27 19:42:00,
2013-09-28 05:47:00,48.8,44.8,29.87,WSW,254,1.1,1.1,86,0.00,CLR,,0.00,WeatherDisplay:10.37,2013-09-27 19:47:00,
2013-09-28 05:52:00,48.8,44.8,29.87,WSW,256,1.1,1.1,86,0.00,CLR,,0.00,WeatherDisplay:10.37,2013-09-27 19:52:00,
2013-09-28 05:57:00,48.9,44.6,29.87,WSW,256,3.5,3.5,85,0.00,CLR,,0.00,WeatherDisplay:10.37,2013-09-27 19:57:00,
2013-09-28 06:02:00,49.4,45.1,29.87,WSW,256,1.1,1.1,85,0.00,CLR,,0.00,WeatherDisplay:10.37,2013-09-27 20:02:00,
2013-09-28 06:07:00,49.9,44.9,29.87,WSW,256,2.3,2.3,83,0.00,CLR,,0.00,WeatherDisplay:10.37,2013-09-27 20:07:00,
2013-09-28 06:12:00,50.3,45.0,29.87,WSW,255,3.5,3.5,82,0.00,CLR,,0.00,WeatherDisplay:10.37,2013-09-27 20:12:00,
2013-09-28 06:17:00,50.7,45.4,29.87,West,261,2.3,2.3,82,0.00,CLR,,0.00,WeatherDisplay:10.37,2013-09-27 20:17:00,
2013-09-28 06:22:00,51.0,45.4,29.87,West,267,4.6,4.6,81,0.00,CLR,,0.00,WeatherDisplay:10.37,2013-09-27 20:22:00,
2013-09-28 06:27:00,51.3,45.7,29.87,West,277,5.8,5.8,81,0.00,CLR,,0.00,WeatherDisplay:10.37,2013-09-27 20:27:00,
2013-09-28 06:32:00,51.5,45.5,29.87,West,264,4.6,4.6,80,0.00,CLR,,0.00,WeatherDisplay:10.37,2013-09-27 20:32:00,
2013-09-28 06:37:00,51.6,45.6,29.87,WSW,257,0.0,0.0,80,0.00,CLR,,0.00,WeatherDisplay:10.37,2013-09-27 20:37:00,
2013-09-28 06:42:00,51.7,45.7,29.87,WSW,258,2.3,2.3,80,0.00,CLR,,0.00,WeatherDisplay:10.37,2013-09-27 20:42:00,
2013-09-28 06:47:00,51.8,45.8,29.87,WSW,256,3.5,3.5,80,0.00,CLR,,0.00,WeatherDisplay:10.37,2013-09-27 20:47:00,
2013-09-28 06:52:00,52.1,45.8,29.87,West,266,2.3,2.3,79,0.00,CLR,,0.00,WeatherDisplay:10.37,2013-09-27 20:52:00,
2013-09-28 06:57:00,52.3,45.6,29.87,West,266,1.1,1.1,78,0.00,CLR,,0.00,WeatherDisplay:10.37,2013-09-27 20:57:00,
2013-09-28 07:02:00,52.6,45.9,29.87,West,266,2.3,2.3,78,0.00,CLR,,0.00,WeatherDisplay:10.37,2013-09-27 21:02:00,
2013-09-28 07:07:00,53.1,46.1,29.86,West,262,4.6,4.6,77,0.00,CLR,,0.00,WeatherDisplay:10.37,2013-09-27 21:07:00,
2013-09-28 07:12:00,53.6,46.2,29.87,West,260,3.5,3.5,76,0.00,CLR,,0.00,WeatherDisplay:10.37,2013-09-27 21:12:00,
2013-09-28 07:17:00,53.9,46.5,29.87,WSW,254,4.0,4.0,76,0.00,CLR,,0.00,WeatherDisplay:10.37,2013-09-27 21:17:00,
2013-09-28 07:22:00,54.3,46.5,29.87,West,264,4.0,4.5,75,0.00,CLR,,0.00,WeatherDisplay:10.37,2013-09-27 21:22:00,
2013-09-28 07:27:00,54.8,46.3,29.87,WSW,248,3.0,3.0,73,0.00,CLR,,0.00,WeatherDisplay:10.37,2013-09-27 21:27:00,
2013-09-28 07:32:00,55.2,46.7,29.87,WSW,256,10.4,10.4,73,0.00,CLR,,0.00,WeatherDisplay:10.37,2013-09-27 21:32:00,
2013-09-28 07:37:00,55.7,46.8,29.87,WNW,297,10.4,10.4,72,0.00,CLR,,0.00,WeatherDisplay:10.37,2013-09-27 21:37:00,
2013-09-28 07:42:00,56.1,46.8,29.86,West,273,8.1,8.1,71,0.00,CLR,,0.00,WeatherDisplay:10.37,2013-09-27 21:42:00,
2013-09-28 07:47:00,56.5,46.8,29.86,WSW,248,5.8,5.8,70,0.00,CLR,,0.00,WeatherDisplay:10.37,2013-09-27 21:47:00,
2013-09-28 07:52:00,56.8,47.1,29.86,WNW,289,9.2,9.2,70,0.00,CLR,,0.00,WeatherDisplay:10.37,2013-09-27 21:52:00,
2013-09-28 07:57:00,57.1,47.0,29.86,SW,227,10.4,10.4,69,0.00,CLR,,0.00,WeatherDisplay:10.37,2013-09-27 21:57:00,
2013-09-28 08:02:00,57.4,47.3,29.86,SW,235,9.2,9.2,69,0.00,CLR,,0.00,WeatherDisplay:10.37,2013-09-27 22:02:00,
2013-09-28 08:07:00,57.8,47.3,29.86,WSW,253,6.9,6.9,68,0.00,CLR,,0.00,WeatherDisplay:10.37,2013-09-27 22:07:00,
2013-09-28 08:12:00,58.3,47.8,29.86,West,276,3.5,3.5,68,0.00,CLR,,0.00,WeatherDisplay:10.37,2013-09-27 22:12:00,
2013-09-28 08:17:00,59.0,47.2,29.86,SW,231,6.9,6.9,65,0.00,CLR,,0.00,WeatherDisplay:10.37,2013-09-27 22:17:00,
2013-09-28 08:22:00,59.5,47.3,29.86,WSW,248,4.0,4.0,64,0.00,CLR,,0.00,WeatherDisplay:10.37,2013-09-27 22:22:00,
2013-09-28 08:27:00,60.1,47.0,29.85,West,267,11.5,11.5,62,0.00,CLR,,0.00,WeatherDisplay:10.37,2013-09-27 22:27:00,
2013-09-28 08:32:00,60.6,47.1,29.85,West,260,9.2,9.2,61,0.00,CLR,,0.00,WeatherDisplay:10.37,2013-09-27 22:32:00,
2013-09-28 08:37:00,61.3,46.8,29.85,West,260,6.9,7.4,59,0.00,CLR,,0.00,WeatherDisplay:10.37,2013-09-27 22:37:00,
2013-09-28 08:42:00,61.9,47.0,29.85,WSW,244,8.1,8.1,58,0.00,CLR,,0.00,WeatherDisplay:10.37,2013-09-27 22:42:00,
2013-09-28 08:48:00,62.6,47.1,29.85,West,261,3.5,3.5,57,0.00,CLR,,0.00,WeatherDisplay:10.37,2013-09-27 22:48:00,
2013-09-28 08:53:00,63.4,47.4,29.84,West,277,8.0,8.0,56,0.00,CLR,,0.00,WeatherDisplay:10.37,2013-09-27 22:53:00,
2013-09-28 08:58:00,64.0,47.5,29.84,West,268,6.0,6.0,55,0.00,CLR,,0.00,WeatherDisplay:10.37,2013-09-27 22:58:00,
2013-09-28 09:03:00,64.7,47.2,29.83,WNW,290,4.6,4.6,53,0.00,CLR,,0.00,WeatherDisplay:10.37,2013-09-27 23:03:00,
2013-09-28 09:08:00,65.6,47.0,29.83,West,271,6.9,6.9,51,0.00,CLR,,0.00,WeatherDisplay:10.37,2013-09-27 23:08:00,
2013-09-28 09:13:00,66.1,47.4,29.82,WNW,284,5.8,5.8,51,0.00,CLR,,0.00,WeatherDisplay:10.37,2013-09-27 23:13:00,
2013-09-28 09:18:00,66.9,46.6,29.82,West,265,3.5,3.5,48,0.00,CLR,,0.00,WeatherDisplay:10.37,2013-09-27 23:18:00,
2013-09-28 09:23:00,67.4,45.9,29.82,WSW,251,5.0,5.0,46,0.00,CLR,,0.00,WeatherDisplay:10.37,2013-09-27 23:23:00,
2013-09-28 09:28:00,68.0,47.0,29.82,West,264,4.6,4.6,47,0.00,CLR,,0.00,WeatherDisplay:10.37,2013-09-27 23:28:00,
2013-09-28 09:33:00,68.4,47.4,29.82,West,262,5.8,5.8,47,0.00,CLR,,0.00,WeatherDisplay:10.37,2013-09-27 23:33:00,
2013-09-28 09:38:00,69.0,48.5,29.82,West,274,2.3,2.3,48,0.00,CLR,,0.00,WeatherDisplay:10.37,2013-09-27 23:38:00,
2013-09-28 09:43:00,69.8,48.1,29.81,North,349,3.5,3.5,46,0.00,CLR,,0.00,WeatherDisplay:10.37,2013-09-27 23:43:00,
2013-09-28 09:48:00,70.9,47.9,29.81,NNW,339,4.6,4.6,44,0.00,CLR,,0.00,WeatherDisplay:10.37,2013-09-27 23:48:00,
2013-09-28 09:53:00,72.1,46.4,29.81,North,349,6.9,6.9,40,0.00,CLR,,0.00,WeatherDisplay:10.37,2013-09-27 23:53:00,
2013-09-28 09:58:00,72.8,46.4,29.80,North,354,3.5,3.5,39,0.00,CLR,,0.00,WeatherDisplay:10.37,2013-09-27 23:58:00,
2013-09-28 10:03:00,73.3,47.5,29.80,North,4,4.0,4.0,40,0.00,CLR,,0.00,WeatherDisplay:10.37,2013-09-28 00:03:00,
2013-09-28 10:08:00,74.0,47.5,29.79,North,349,3.5,3.5,39,0.00,CLR,,0.00,WeatherDisplay:10.37,2013-09-28 00:08:00,
2013-09-28 10:13:00,74.6,46.6,29.79,WNW,295,4.0,4.0,37,0.00,CLR,,0.00,WeatherDisplay:10.37,2013-09-28 00:13:00,
2013-09-28 10:18:00,75.1,47.8,29.78,WNW,289,3.5,3.5,38,0.00,CLR,,0.00,WeatherDisplay:10.37,2013-09-28 00:18:00,
2013-09-28 10:23:00,75.5,46.7,29.78,NNW,343,4.6,4.6,36,0.00,CLR,,0.00,WeatherDisplay:10.37,2013-09-28 00:23:00,
2013-09-28 10:28:00,76.2,46.5,29.77,NNW,347,3.5,3.5,35,0.00,CLR,,0.00,WeatherDisplay:10.37,2013-09-28 00:28:00,
2013-09-28 10:33:00,77.1,45.8,29.77,North,354,3.5,3.5,33,0.00,CLR,,0.00,WeatherDisplay:10.37,2013-09-28 00:33:00,
2013-09-28 10:38:00,78.0,45.7,29.77,NNW,332,1.1,1.1,32,0.00,CLR,,0.00,WeatherDisplay:10.37,2013-09-28 00:38:00,
2013-09-28 10:43:00,78.8,45.6,29.76,NNW,331,5.0,5.0,31,0.00,CLR,,0.00,WeatherDisplay:10.37,2013-09-28 00:43:00,
2013-09-28 10:48:00,79.5,43.5,29.76,WSW,249,5.8,5.8,28,0.00,CLR,,0.00,WeatherDisplay:10.37,2013-09-28 00:48:00,
2013-09-28 10:53:00,79.5,43.5,29.75,North,349,5.8,5.8,28,0.00,CLR,,0.00,WeatherDisplay:10.37,2013-09-28 00:53:00,
2013-09-28 10:58:00,79.8,43.8,29.75,North,354,5.0,5.0,28,0.00,CLR,,0.00,WeatherDisplay:10.37,2013-09-28 00:58:00,
2013-09-28 11:03:00,80.4,43.3,29.74,NW,318,3.5,3.5,27,0.00,CLR,,0.00,WeatherDisplay:10.37,2013-09-28 01:03:00,
2013-09-28 11:08:00,81.0,42.9,29.74,North,359,2.3,2.4,26,0.00,CLR,,0.00,WeatherDisplay:10.37,2013-09-28 01:08:00,
2013-09-28 11:13:00,81.4,43.2,29.74,WSW,239,7.0,7.0,26,0.00,CLR,,0.00,WeatherDisplay:10.37,2013-09-28 01:13:00,
2013-09-28 11:18:00,81.5,43.3,29.73,WSW,254,6.9,6.9,26,0.00,CLR,,0.00,WeatherDisplay:10.37,2013-09-28 01:18:00,
2013-09-28 11:24:00,81.7,41.4,29.72,ENE,70,8.1,8.1,24,0.00,CLR,,0.00,WeatherDisplay:10.37,2013-09-28 01:24:00,
2013-09-28 11:29:00,81.9,40.5,29.72,NNW,330,4.0,4.0,23,0.00,CLR,,0.00,WeatherDisplay:10.37,2013-09-28 01:29:00,
2013-09-28 11:34:00,82.7,36.2,29.72,WNW,299,13.8,13.8,19,0.00,CLR,,0.00,WeatherDisplay:10.37,2013-09-28 01:34:00,
2013-09-28 11:39:00,82.5,36.1,29.72,WSW,249,17.3,17.3,19,0.00,CLR,,0.00,WeatherDisplay:10.37,2013-09-28 01:39:00,
2013-09-28 11:44:00,82.3,33.1,29.72,WSW,243,24.2,24.2,17,0.00,CLR,,0.00,WeatherDisplay:10.37,2013-09-28 01:44:00,
2013-09-28 11:49:00,82.1,32.9,29.71,SW,221,16.1,16.1,17,0.00,CLR,,0.00,WeatherDisplay:10.37,2013-09-28 01:49:00,
2013-09-28 11:54:00,81.9,34.2,29.71,WSW,246,26.5,26.5,18,0.00,CLR,,0.00,WeatherDisplay:10.37,2013-09-28 01:54:00,
2013-09-28 11:59:00,81.9,35.6,29.71,SW,232,19.6,19.6,19,0.00,CLR,,0.00,WeatherDisplay:10.37,2013-09-28 01:59:00,
2013-09-28 12:04:00,82.0,34.3,29.71,SW,233,19.6,19.6,18,0.00,CLR,,0.00,WeatherDisplay:10.37,2013-09-28 02:04:00,
2013-09-28 12:09:00,82.4,34.6,29.70,West,280,19.6,19.6,18,0.00,CLR,,0.00,WeatherDisplay:10.37,2013-09-28 02:09:00,
2013-09-28 12:14:00,82.6,36.1,29.71,WNW,291,24.2,24.2,19,0.00,CLR,,0.00,WeatherDisplay:10.37,2013-09-28 02:14:00,
2013-09-28 12:19:00,82.7,34.9,29.70,SW,229,19.6,19.6,18,0.00,CLR,,0.00,WeatherDisplay:10.37,2013-09-28 02:19:00,
2013-09-28 12:24:00,82.7,33.4,29.70,SSW,192,20.7,20.7,17,0.00,CLR,,0.00,WeatherDisplay:10.37,2013-09-28 02:24:00,
2013-09-28 12:29:00,82.9,35.0,29.70,SSW,213,13.8,13.8,18,0.00,CLR,,0.00,WeatherDisplay:10.37,2013-09-28 02:29:00,
2013-09-28 12:34:00,83.6,35.6,29.70,West,272,11.5,11.5,18,0.00,CLR,,0.00,WeatherDisplay:10.37,2013-09-28 02:34:00,
2013-09-28 12:39:00,84.0,33.0,29.69,WSW,248,15.0,15.0,16,0.00,CLR,,0.00,WeatherDisplay:10.37,2013-09-28 02:39:00,
2013-09-28 12:44:00,84.1,31.4,29.69,SW,233,23.0,23.0,15,0.00,CLR,,0.00,WeatherDisplay:10.37,2013-09-28 02:44:00,
2013-09-28 12:49:00,83.9,32.9,29.69,WNW,297,11.5,11.5,16,0.00,CLR,,0.00,WeatherDisplay:10.37,2013-09-28 02:49:00,
2013-09-28 12:54:00,84.1,33.0,29.69,West,277,6.9,6.9,16,0.00,CLR,,0.00,WeatherDisplay:10.37,2013-09-28 02:54:00,
2013-09-28 12:59:00,84.3,33.2,29.69,West,275,13.8,13.8,16,0.00,CLR,,0.00,WeatherDisplay:10.37,2013-09-28 02:59:00,
2013-09-28 13:04:00,84.1,33.0,29.69,WNW,297,6.9,6.9,16,0.00,CLR,,0.00,WeatherDisplay:10.37,2013-09-28 03:04:00,
2013-09-28 13:09:00,83.5,34.1,29.69,SSW,204,6.9,6.9,17,0.00,CLR,,0.00,WeatherDisplay:10.37,2013-09-28 03:09:00,
2013-09-28 13:14:00,84.0,33.0,29.69,WSW,237,16.1,16.1,16,0.00,CLR,,0.00,WeatherDisplay:10.37,2013-09-28 03:14:00,
2013-09-28 13:19:00,84.0,31.4,29.68,WNW,287,15.0,15.0,15,0.00,CLR,,0.00,WeatherDisplay:10.37,2013-09-28 03:19:00,
2013-09-28 13:24:00,83.9,32.9,29.68,West,269,15.0,15.0,16,0.00,CLR,,0.00,WeatherDisplay:10.37,2013-09-28 03:24:00,
2013-09-28 13:29:00,84.3,33.2,29.68,NW,305,8.1,8.1,16,0.00,CLR,,0.00,WeatherDisplay:10.37,2013-09-28 03:29:00,
2013-09-28 13:34:00,84.7,33.5,29.69,West,259,11.5,11.5,16,0.00,CLR,,0.00,WeatherDisplay:10.37,2013-09-28 03:34:00,
2013-09-28 13:39:00,84.4,31.7,29.68,NW,304,20.7,20.7,15,0.00,CLR,,0.00,WeatherDisplay:10.37,2013-09-28 03:39:00,
2013-09-28 13:44:00,84.4,33.3,29.68,SSW,210,9.2,9.2,16,0.00,CLR,,0.00,WeatherDisplay:10.37,2013-09-28 03:44:00,
2013-09-28 13:49:00,84.7,35.0,29.68,WSW,252,15.0,15.0,17,0.00,CLR,,0.00,WeatherDisplay:10.37,2013-09-28 03:49:00,
2013-09-28 13:54:00,84.3,34.7,29.69,WSW,252,9.0,9.0,17,0.00,CLR,,0.00,WeatherDisplay:10.37,2013-09-28 03:54:00,
2013-09-28 13:59:00,84.0,31.4,29.68,South,183,18.4,18.4,15,0.00,CLR,,0.00,WeatherDisplay:10.37,2013-09-28 03:59:00,
2013-09-28 14:01:00,83.5,31.0,29.69,SW,226,19.6,19.6,15,0.00,CLR,,0.00,WeatherDisplay:10.37,2013-09-28 04:01:00,
2013-09-28 14:02:00,83.3,30.8,29.69,WSW,251,16.1,16.1,15,0.00,CLR,,0.00,WeatherDisplay:10.37,2013-09-28 04:02:00,
2013-09-28 14:07:00,82.6,31.8,29.68,SW,216,19.6,19.6,16,0.00,CLR,,0.00,WeatherDisplay:10.37,2013-09-28 04:07:00,
2013-09-28 14:12:00,82.4,30.1,29.68,WSW,249,20.7,20.7,15,0.00,CLR,,0.00,WeatherDisplay:10.37,2013-09-28 04:12:00,
2013-09-28 14:17:00,82.1,28.2,29.69,SW,224,17.0,17.0,14,0.00,CLR,,0.00,WeatherDisplay:10.37,2013-09-28 04:17:00,
2013-09-28 14:22:00,82.1,29.8,29.68,SW,226,17.3,17.3,15,0.00,CLR,,0.00,WeatherDisplay:10.37,2013-09-28 04:22:00,
2013-09-28 14:27:00,82.2,29.9,29.68,SW,231,18.4,18.4,15,0.00,CLR,,0.00,WeatherDisplay:10.37,2013-09-28 04:27:00,
2013-09-28 14:32:00,81.8,29.6,29.68,SSW,197,19.6,19.6,15,0.00,CLR,,0.00,WeatherDisplay:10.37,2013-09-28 04:32:00,
2013-09-28 14:37:00,82.1,29.8,29.68,SW,229,11.5,11.5,15,0.00,CLR,,0.00,WeatherDisplay:10.37,2013-09-28 04:37:00,
2013-09-28 14:42:00,82.3,30.0,29.68,WSW,250,15.0,15.0,15,0.00,CLR,,0.00,WeatherDisplay:10.37,2013-09-28 04:42:00,
2013-09-28 14:47:00,81.8,27.9,29.68,WSW,243,18.4,18.4,14,0.00,CLR,,0.00,WeatherDisplay:10.37,2013-09-28 04:47:00,
2013-09-28 14:52:00,81.6,26.0,29.68,SW,232,23.0,23.0,13,0.00,CLR,,0.00,WeatherDisplay:10.37,2013-09-28 04:52:00,
2013-09-28 14:57:00,81.7,27.8,29.68,WSW,254,26.5,26.5,14,0.00,CLR,,0.00,WeatherDisplay:10.37,2013-09-28 04:57:00,
2013-09-28 15:02:00,81.6,27.8,29.68,SSW,195,20.7,20.7,14,0.00,CLR,,0.00,WeatherDisplay:10.37,2013-09-28 05:02:00,
2013-09-28 15:07:00,81.1,27.4,29.68,WSW,242,25.3,25.3,14,0.00,CLR,,0.00,WeatherDisplay:10.37,2013-09-28 05:07:00,
2013-09-28 15:12:00,80.8,28.8,29.69,WSW,246,17.0,17.0,15,0.00,CLR,,0.00,WeatherDisplay:10.37,2013-09-28 05:12:00,
2013-09-28 15:17:00,80.9,27.2,29.70,SW,235,15.0,15.0,14,0.00,CLR,,0.00,WeatherDisplay:10.37,2013-09-28 05:17:00,
2013-09-28 15:23:00,80.8,27.1,29.69,WSW,241,19.6,19.6,14,0.00,CLR,,0.00,WeatherDisplay:10.37,2013-09-28 05:23:00,
2013-09-28 15:28:00,80.4,28.5,29.69,SW,224,19.6,19.6,15,0.00,CLR,,0.00,WeatherDisplay:10.37,2013-09-28 05:28:00,
2013-09-28 15:33:00,80.2,28.3,29.69,SW,235,18.4,18.4,15,0.00,CLR,,0.00,WeatherDisplay:10.37,2013-09-28 05:33:00,
2013-09-28 15:38:00,80.3,28.4,29.70,West,270,20.7,20.7,15,0.00,CLR,,0.00,WeatherDisplay:10.37,2013-09-28 05:38:00,
2013-09-28 15:43:00,80.6,28.7,29.70,West,268,18.4,18.4,15,0.00,CLR,,0.00,WeatherDisplay:10.37,2013-09-28 05:43:00,
2013-09-28 15:48:00,80.1,28.3,29.70,WSW,240,11.5,11.5,15,0.00,CLR,,0.00,WeatherDisplay:10.37,2013-09-28 05:48:00,
2013-09-28 15:53:00,80.3,30.0,29.71,WSW,253,15.0,15.0,16,0.00,CLR,,0.00,WeatherDisplay:10.37,2013-09-28 05:53:00,
2013-09-28 15:58:00,80.2,28.3,29.71,SW,222,5.8,5.8,15,0.00,CLR,,0.00,WeatherDisplay:10.37,2013-09-28 05:58:00,
2013-09-28 16:03:00,80.3,30.0,29.71,SSW,202,11.0,11.0,16,0.00,CLR,,0.00,WeatherDisplay:10.37,2013-09-28 06:03:00,
2013-09-28 16:08:00,80.0,28.2,29.72,SW,218,15.0,15.0,15,0.00,CLR,,0.00,WeatherDisplay:10.37,2013-09-28 06:08:00,
2013-09-28 16:13:00,79.4,29.3,29.72,WSW,239,11.5,11.5,16,0.00,CLR,,0.00,WeatherDisplay:10.37,2013-09-28 06:13:00,
2013-09-28 16:18:00,79.1,29.0,29.72,West,270,17.3,17.3,16,0.00,CLR,,0.00,WeatherDisplay:10.37,2013-09-28 06:18:00,
2013-09-28 16:23:00,79.0,28.9,29.72,SW,215,11.5,11.5,16,0.00,CLR,,0.00,WeatherDisplay:10.37,2013-09-28 06:23:00,
2013-09-28 16:28:00,78.8,30.3,29.73,SW,214,10.4,10.4,17,0.00,CLR,,0.00,WeatherDisplay:10.37,2013-09-28 06:28:00,
2013-09-28 16:33:00,78.9,30.4,29.73,West,271,9.2,9.2,17,0.00,CLR,,0.00,WeatherDisplay:10.37,2013-09-28 06:33:00,
2013-09-28 16:38:00,78.3,29.9,29.73,WSW,240,18.4,18.4,17,0.00,CLR,,0.00,WeatherDisplay:10.37,2013-09-28 06:38:00,
2013-09-28 16:43:00,77.9,29.5,29.73,WSW,243,15.0,15.0,17,0.00,CLR,,0.00,WeatherDisplay:10.37,2013-09-28 06:43:00,
2013-09-28 16:48:00,77.6,30.7,29.73,SW,223,11.5,11.5,18,0.00,CLR,,0.00,WeatherDisplay:10.37,2013-09-28 06:48:00,
2013-09-28 16:53:00,77.4,30.5,29.73,SW,236,11.5,11.5,18,0.00,CLR,,0.00,WeatherDisplay:10.37,2013-09-28 06:53:00,
2013-09-28 16:58:00,77.1,30.3,29.73,WSW,241,18.4,18.4,18,0.00,CLR,,0.00,WeatherDisplay:10.37,2013-09-28 06:58:00,
2013-09-28 17:03:00,76.9,31.5,29.74,SSW,210,13.8,13.8,19,0.00,CLR,,0.00,WeatherDisplay:10.37,2013-09-28 07:03:00,
2013-09-28 17:08:00,76.4,31.1,29.74,WSW,237,19.0,19.0,19,0.00,CLR,,0.00,WeatherDisplay:10.37,2013-09-28 07:08:00,
2013-09-28 17:13:00,76.0,30.7,29.75,SSW,199,17.3,17.3,19,0.00,CLR,,0.00,WeatherDisplay:10.37,2013-09-28 07:13:00,
2013-09-28 17:18:00,75.7,31.8,29.75,SW,224,11.5,11.5,20,0.00,CLR,,0.00,WeatherDisplay:10.37,2013-09-28 07:18:00,
2013-09-28 17:23:00,75.3,31.4,29.75,SSW,212,10.4,10.4,20,0.00,CLR,,0.00,WeatherDisplay:10.37,2013-09-28 07:23:00,
2013-09-28 17:28:00,74.9,32.3,29.76,SW,220,11.5,11.5,21,0.00,CLR,,0.00,WeatherDisplay:10.37,2013-09-28 07:28:00,
2013-09-28 17:33:00,74.6,33.2,29.76,WSW,254,8.0,8.0,22,0.00,CLR,,0.00,WeatherDisplay:10.37,2013-09-28 07:33:00,
2013-09-28 17:38:00,74.3,33.0,29.77,SSW,195,7.0,7.0,22,0.00,CLR,,0.00,WeatherDisplay:10.37,2013-09-28 07:38:00,
2013-09-28 17:43:00,73.8,32.6,29.78,WSW,253,7.0,7.0,22,0.00,CLR,,0.00,WeatherDisplay:10.37,2013-09-28 07:43:00,
2013-09-28 17:48:00,73.4,33.3,29.78,SSW,199,4.6,4.6,23,0.00,CLR,,0.00,WeatherDisplay:10.37,2013-09-28 07:48:00,
2013-09-28 17:53:00,72.9,34.0,29.79,SW,227,3.5,3.5,24,0.00,CLR,,0.00,WeatherDisplay:10.37,2013-09-28 07:53:00,
2013-09-28 17:58:00,72.5,33.6,29.80,SSW,197,3.5,3.5,24,0.00,CLR,,0.00,WeatherDisplay:10.37,2013-09-28 07:58:00,
2013-09-28 18:03:00,72.3,33.5,29.80,SW,231,3.5,3.5,24,0.00,CLR,,0.00,WeatherDisplay:10.37,2013-09-28 08:03:00,
2013-09-28 18:08:00,71.8,33.0,29.80,SW,225,12.7,12.7,24,0.00,CLR,,0.00,WeatherDisplay:10.37,2013-09-28 08:08:00,
2013-09-28 18:13:00,71.3,33.6,29.81,SW,228,8.1,8.1,25,0.00,CLR,,0.00,WeatherDisplay:10.37,2013-09-28 08:13:00,
2013-09-28 18:18:00,71.1,32.5,29.81,SW,216,10.4,10.4,24,0.00,CLR,,0.00,WeatherDisplay:10.37,2013-09-28 08:18:00,
2013-09-28 18:23:00,70.9,33.3,29.81,SW,228,13.8,13.8,25,0.00,CLR,,0.00,WeatherDisplay:10.37,2013-09-28 08:23:00,
2013-09-28 18:28:00,70.7,33.1,29.81,WSW,246,6.9,6.9,25,0.00,CLR,,0.00,WeatherDisplay:10.37,2013-09-28 08:28:00,
2013-09-28 18:33:00,70.5,33.9,29.81,SW,223,10.4,10.4,26,0.00,CLR,,0.00,WeatherDisplay:10.37,2013-09-28 08:33:00,
2013-09-28 18:38:00,70.2,33.7,29.82,SW,232,6.0,6.0,26,0.00,CLR,,0.00,WeatherDisplay:10.37,2013-09-28 08:38:00,
2013-09-28 18:43:00,69.9,34.4,29.82,SSW,197,13.8,13.8,27,0.00,CLR,,0.00,WeatherDisplay:10.37,2013-09-28 08:43:00,
2013-09-28 18:48:00,70.0,34.5,29.83,SW,233,6.9,6.9,27,0.00,CLR,,0.00,WeatherDisplay:10.37,2013-09-28 08:48:00,
2013-09-28 18:53:00,69.7,35.1,29.83,SSW,202,11.5,11.5,28,0.00,CLR,,0.00,WeatherDisplay:10.37,2013-09-28 08:53:00,
2013-09-28 18:58:00,69.5,34.9,29.84,SSW,213,18.4,18.4,28,0.00,CLR,,0.00,WeatherDisplay:10.37,2013-09-28 08:58:00,
2013-09-28 19:03:00,69.5,34.9,29.85,SSW,212,6.9,6.9,28,0.00,CLR,,0.00,WeatherDisplay:10.37,2013-09-28 09:03:00,
2013-09-28 19:08:00,69.2,36.4,29.85,WSW,237,9.2,9.2,30,0.00,CLR,,0.00,WeatherDisplay:10.37,2013-09-28 09:08:00,
2013-09-28 19:13:00,69.1,37.2,29.85,SW,229,18.4,18.4,31,0.00,CLR,,0.00,WeatherDisplay:10.37,2013-09-28 09:13:00,
2013-09-28 19:18:00,69.0,37.9,29.85,WSW,247,9.2,9.2,32,0.00,CLR,,0.00,WeatherDisplay:10.37,2013-09-28 09:18:00,
2013-09-28 19:23:00,68.9,37.8,29.86,WSW,238,11.5,11.5,32,0.00,CLR,,0.00,WeatherDisplay:10.37,2013-09-28 09:23:00,
2013-09-28 19:28:00,68.8,37.7,29.86,SW,229,10.4,10.4,32,0.00,CLR,,0.00,WeatherDisplay:10.37,2013-09-28 09:28:00,
2013-09-28 19:33:00,68.6,38.3,29.86,SW,224,7.0,7.0,33,0.00,CLR,,0.00,WeatherDisplay:10.37,2013-09-28 09:33:00,
2013-09-28 19:38:00,68.3,38.8,29.86,SW,216,9.2,9.2,34,0.00,CLR,,0.00,WeatherDisplay:10.37,2013-09-28 09:38:00,
2013-09-28 19:43:00,68.1,39.4,29.86,SSW,208,7.0,7.0,35,0.00,CLR,,0.00,WeatherDisplay:10.37,2013-09-28 09:43:00,
2013-09-28 19:48:00,67.9,39.2,29.87,SW,214,4.6,4.6,35,0.00,CLR,,0.00,WeatherDisplay:10.37,2013-09-28 09:48:00,
2013-09-28 19:53:00,67.6,39.7,29.87,WSW,239,6.9,6.9,36,0.00,CLR,,0.00,WeatherDisplay:10.37,2013-09-28 09:53:00,
2013-09-28 19:58:00,67.4,39.5,29.87,WSW,241,4.6,4.6,36,0.00,CLR,,0.00,WeatherDisplay:10.37,2013-09-28 09:58:00,
2013-09-28 20:03:00,67.1,39.9,29.88,SW,232,3.5,3.5,37,0.00,CLR,,0.00,WeatherDisplay:10.37,2013-09-28 10:03:00,
2013-09-28 20:08:00,66.8,40.4,29.88,SW,233,2.3,2.3,38,0.00,CLR,,0.00,WeatherDisplay:10.37,2013-09-28 10:08:00,
2013-09-28 20:13:00,66.4,40.0,29.88,SW,235,3.5,3.5,38,0.00,CLR,,0.00,WeatherDisplay:10.37,2013-09-28 10:13:00,
2013-09-28 20:18:00,66.1,39.7,29.88,West,271,8.0,8.0,38,0.00,CLR,,0.00,WeatherDisplay:10.37,2013-09-28 10:18:00,
2013-09-28 20:23:00,65.9,39.6,29.89,WSW,247,4.6,4.6,38,0.00,CLR,,0.00,WeatherDisplay:10.37,2013-09-28 10:23:00,
2013-09-28 20:28:00,65.7,40.1,29.89,West,260,4.6,4.6,39,0.00,CLR,,0.00,WeatherDisplay:10.37,2013-09-28 10:28:00,
2013-09-28 20:33:00,65.6,40.0,29.88,SW,231,6.9,6.9,39,0.00,CLR,,0.00,WeatherDisplay:10.37,2013-09-28 10:33:00,
2013-09-28 20:39:00,65.7,40.1,29.88,WSW,241,3.5,3.5,39,0.00,CLR,,0.00,WeatherDisplay:10.37,2013-09-28 10:39:00,
2013-09-28 20:44:00,65.6,40.0,29.88,WSW,252,9.2,9.2,39,0.00,CLR,,0.00,WeatherDisplay:10.37,2013-09-28 10:44:00,
2013-09-28 20:49:00,65.5,40.5,29.88,WSW,245,8.1,8.1,40,0.00,CLR,,0.00,WeatherDisplay:10.37,2013-09-28 10:49:00,
2013-09-28 20:54:00,65.4,40.4,29.88,WSW,256,5.8,5.8,40,0.00,CLR,,0.00,WeatherDisplay:10.37,2013-09-28 10:54:00,
2013-09-28 20:59:00,65.2,40.9,29.89,West,264,6.9,6.9,41,0.00,CLR,,0.00,WeatherDisplay:10.37,2013-09-28 10:59:00,
2013-09-28 21:04:00,65.0,40.7,29.89,WSW,244,8.1,8.1,41,0.00,CLR,,0.00,WeatherDisplay:10.37,2013-09-28 11:04:00,
2013-09-28 21:09:00,64.7,41.1,29.89,WSW,239,4.0,4.0,42,0.00,CLR,,0.00,WeatherDisplay:10.37,2013-09-28 11:09:00,
2013-09-28 21:14:00,64.5,41.5,29.89,WSW,245,3.5,3.5,43,0.00,CLR,,0.00,WeatherDisplay:10.37,2013-09-28 11:14:00,
2013-09-28 21:19:00,64.1,41.1,29.89,WSW,243,2.3,2.3,43,0.00,CLR,,0.00,WeatherDisplay:10.37,2013-09-28 11:19:00,
2013-09-28 21:24:00,64.0,41.0,29.89,SW,235,4.0,4.0,43,0.00,CLR,,0.00,WeatherDisplay:10.37,2013-09-28 11:24:00,
2013-09-28 21:29:00,64.0,41.6,29.89,West,266,7.0,7.0,44,0.00,CLR,,0.00,WeatherDisplay:10.37,2013-09-28 11:29:00,
2013-09-28 21:34:00,63.9,41.5,29.89,WSW,238,3.0,3.0,44,0.00,CLR,,0.00,WeatherDisplay:10.37,2013-09-28 11:34:00,
2013-09-28 21:39:00,63.6,41.3,29.89,WSW,241,3.5,3.5,44,0.00,CLR,,0.00,WeatherDisplay:10.37,2013-09-28 11:39:00,
2013-09-28 21:44:00,63.4,41.7,29.89,WSW,257,5.8,5.8,45,0.00,CLR,,0.00,WeatherDisplay:10.37,2013-09-28 11:44:00,
2013-09-28 21:49:00,63.3,41.6,29.89,SW,218,8.0,8.0,45,0.00,CLR,,0.00,WeatherDisplay:10.37,2013-09-28 11:49:00,
2013-09-28 21:54:00,63.4,41.7,29.88,WSW,247,9.2,9.2,45,0.00,CLR,,0.00,WeatherDisplay:10.37,2013-09-28 11:54:00,
2013-09-28 21:59:00,63.4,41.7,29.88,WSW,243,4.6,4.6,45,0.00,CLR,,0.00,WeatherDisplay:10.37,2013-09-28 11:59:00,
2013-09-28 22:04:00,63.4,42.2,29.89,WSW,253,8.1,8.1,46,0.00,CLR,,0.00,WeatherDisplay:10.37,2013-09-28 12:04:00,
2013-09-28 22:09:00,63.4,42.2,29.89,SW,236,2.0,6.0,46,0.00,CLR,CLR,0.00,WeatherDisplay:10.37,2013-09-28 12:09:00,
2013-09-28 22:14:00,63.2,42.1,29.89,WSW,241,3.0,6.0,46,0.00,CLR,CLR,0.00,WeatherDisplay:10.37,2013-09-28 12:14:00,
2013-09-28 22:19:00,63.2,42.6,29.89,WSW,254,3.5,3.5,47,0.00,CLR,,0.00,WeatherDisplay:10.37,2013-09-28 12:19:00,
2013-09-28 22:24:00,63.1,42.5,29.89,WSW,251,2.0,7.0,47,0.00,CLR,CLR,0.00,WeatherDisplay:10.37,2013-09-28 12:24:00,
2013-09-28 22:29:00,63.3,42.7,29.89,SSW,210,4.6,4.6,47,0.00,CLR,,0.00,WeatherDisplay:10.37,2013-09-28 12:29:00,
2013-09-28 22:34:00,63.4,42.8,29.90,SW,218,4.0,4.0,47,0.00,CLR,,0.00,WeatherDisplay:10.37,2013-09-28 12:34:00,
2013-09-28 22:39:00,63.5,43.4,29.90,WSW,241,6.0,6.0,48,0.00,CLR,,0.00,WeatherDisplay:10.37,2013-09-28 12:39:00,
2013-09-28 22:44:00,63.5,44.0,29.90,SSW,210,1.0,6.0,49,0.00,CLR,CLR,0.00,WeatherDisplay:10.37,2013-09-28 12:44:00,
2013-09-28 22:49:00,63.5,44.0,29.90,SW,227,3.5,3.5,49,0.00,CLR,,0.00,WeatherDisplay:10.37,2013-09-28 12:49:00,
2013-09-28 22:54:00,63.4,43.9,29.90,SW,218,3.0,6.0,49,0.00,CLR,CLR,0.00,WeatherDisplay:10.37,2013-09-28 12:54:00,
2013-09-28 22:59:00,63.5,44.0,29.90,SW,222,2.0,5.0,49,0.00,CLR,CLR,0.00,WeatherDisplay:10.37,2013-09-28 12:59:00,
2013-09-28 23:04:00,63.4,44.4,29.90,SW,233,5.0,5.0,50,0.00,CLR,,0.00,WeatherDisplay:10.37,2013-09-28 13:04:00,
2013-09-28 23:09:00,63.3,44.3,29.90,SSW,211,2.0,5.0,50,0.00,CLR,CLR,0.00,WeatherDisplay:10.37,2013-09-28 13:09:00,
2013-09-28 23:14:00,63.0,44.1,29.90,WSW,239,5.8,5.8,50,0.00,CLR,,0.00,WeatherDisplay:10.37,2013-09-28 13:14:00,
2013-09-28 23:19:00,62.9,44.0,29.90,SW,228,4.6,4.6,50,0.00,CLR,,0.00,WeatherDisplay:10.37,2013-09-28 13:19:00,
2013-09-28 23:25:00,62.8,43.9,29.90,SSW,197,5.8,5.8,50,0.00,CLR,,0.00,WeatherDisplay:10.37,2013-09-28 13:25:00,
2013-09-28 23:30:00,62.7,44.3,29.90,SSW,204,3.5,3.5,51,0.00,CLR,,0.00,WeatherDisplay:10.37,2013-09-28 13:30:00,
2013-09-28 23:35:00,62.5,44.1,29.90,SSW,204,3.5,3.5,51,0.00,CLR,,0.00,WeatherDisplay:10.37,2013-09-28 13:35:00,
2013-09-28 23:40:00,62.6,44.2,29.90,SSW,207,4.6,4.6,51,0.00,CLR,,0.00,WeatherDisplay:10.37,2013-09-28 13:40:00,
2013-09-28 23:45:00,62.7,44.3,29.91,SW,216,3.5,3.5,51,0.00,CLR,,0.00,WeatherDisplay:10.37,2013-09-28 13:45:00,
2013-09-28 23:50:00,62.7,43.8,29.91,SSW,197,6.9,6.9,50,0.00,CLR,,0.00,WeatherDisplay:10.37,2013-09-28 13:50:00,
2013-09-28 23:55:00,62.7,44.3,29.91,SSW,205,6.9,6.9,51,0.00,CLR,,0.00,WeatherDisplay:10.37,2013-09-28 13:55:00,